sensor_id;sensor_type;location;lat;lon;timestamp;P1;durP1;ratioP1;P2;durP2;ratioP2
13291;SDS011;6714;53.056;8.690;2022-10-22T02:18:48;3.50;;;3.20;;
13291;SDS011;6714;53.056;8.690;2022-10-22T02:21:31;3.80;;;3.37;;
13291;SDS011;6714;53.056;8.690;2022-10-22T02:24:13;4.67;;;3.67;;
13291;SDS011;6714;53.056;8.690;2022-10-22T02:26:57;3.80;;;3.50;;
13291;SDS011;6714;53.056;8.690;2022-10-22T02:29:42;3.50;;;3.30;;
13291;SDS011;6714;53.056;8.690;2022-10-22T02:32:27;3.20;;;3.00;;
13291;SDS011;6714;53.056;8.690;2022-10-22T02:35:13;3.83;;;3.33;;
13291;SDS011;6714;53.056;8.690;2022-10-22T02:37:56;3.53;;;3.33;;
13291;SDS011;6714;53.056;8.690;2022-10-22T02:40:39;3.23;;;3.03;;
13291;SDS011;6714;53.056;8.690;2022-10-22T02:43:22;3.47;;;3.03;;
13291;SDS011;6714;53.056;8.690;2022-10-22T02:46:05;3.53;;;3.23;;
13291;SDS011;6714;53.056;8.690;2022-10-22T02:48:47;3.60;;;3.13;;
13291;SDS011;6714;53.056;8.690;2022-10-22T02:51:31;3.33;;;3.13;;
13291;SDS011;6714;53.056;8.690;2022-10-22T02:54:13;4.43;;;4.03;;
13291;SDS011;6714;53.056;8.690;2022-10-22T02:56:55;3.90;;;3.20;;
13291;SDS011;6714;53.056;8.690;2022-10-22T02:59:37;5.50;;;3.97;;
13291;SDS011;6714;53.056;8.690;2022-10-22T03:02:19;5.40;;;4.90;;
13291;SDS011;6714;53.056;8.690;2022-10-22T03:05:02;5.00;;;4.50;;
13291;SDS011;6714;53.056;8.690;2022-10-22T03:07:46;7.37;;;5.30;;
13291;SDS011;6714;53.056;8.690;2022-10-22T03:10:28;7.40;;;6.63;;
13291;SDS011;6714;53.056;8.690;2022-10-22T03:13:10;7.97;;;5.77;;
13291;SDS011;6714;53.056;8.690;2022-10-22T03:15:52;6.77;;;6.17;;
13291;SDS011;6714;53.056;8.690;2022-10-22T03:18:34;6.97;;;6.27;;
13291;SDS011;6714;53.056;8.690;2022-10-22T03:21:19;7.77;;;6.93;;
13291;SDS011;6714;53.056;8.690;2022-10-22T03:24:04;7.97;;;7.27;;
13291;SDS011;6714;53.056;8.690;2022-10-22T03:26:49;10.60;;;8.03;;
13291;SDS011;6714;53.056;8.690;2022-10-22T03:29:32;8.90;;;8.00;;
13291;SDS011;6714;53.056;8.690;2022-10-22T03:32:14;9.77;;;8.53;;
13291;SDS011;6714;53.056;8.690;2022-10-22T03:34:56;9.30;;;8.37;;
13291;SDS011;6714;53.056;8.690;2022-10-22T03:37:39;8.07;;;7.13;;
13291;SDS011;6714;53.056;8.690;2022-10-22T03:40:23;12.23;;;9.93;;
13291;SDS011;6714;53.056;8.690;2022-10-22T03:43:05;10.33;;;8.33;;
13291;SDS011;6714;53.056;8.690;2022-10-22T03:45:47;8.53;;;7.73;;
13291;SDS011;6714;53.056;8.690;2022-10-22T03:48:29;11.93;;;9.63;;
13291;SDS011;6714;53.056;8.690;2022-10-22T03:51:11;8.87;;;7.97;;
13291;SDS011;6714;53.056;8.690;2022-10-22T03:53:54;10.43;;;8.43;;
13291;SDS011;6714;53.056;8.690;2022-10-22T03:56:37;11.83;;;10.57;;
13291;SDS011;6714;53.056;8.690;2022-10-22T03:59:19;16.90;;;7.87;;
13291;SDS011;6714;53.056;8.690;2022-10-22T04:02:02;14.37;;;9.90;;
13291;SDS011;6714;53.056;8.690;2022-10-22T04:04:44;10.67;;;9.57;;
13291;SDS011;6714;53.056;8.690;2022-10-22T04:07:26;12.93;;;10.00;;
13291;SDS011;6714;53.056;8.690;2022-10-22T04:10:08;9.47;;;8.57;;
13291;SDS011;6714;53.056;8.690;2022-10-22T04:12:52;9.23;;;8.23;;
13291;SDS011;6714;53.056;8.690;2022-10-22T04:15:34;20.27;;;7.77;;
13291;SDS011;6714;53.056;8.690;2022-10-22T04:18:16;9.77;;;8.77;;
13291;SDS011;6714;53.056;8.690;2022-10-22T04:20:58;11.10;;;9.90;;
13291;SDS011;6714;53.056;8.690;2022-10-22T04:23:43;11.13;;;10.03;;
13291;SDS011;6714;53.056;8.690;2022-10-22T04:26:25;11.77;;;9.87;;
13291;SDS011;6714;53.056;8.690;2022-10-22T04:29:09;11.17;;;10.03;;
13291;SDS011;6714;53.056;8.690;2022-10-22T04:31:51;13.03;;;10.17;;
13291;SDS011;6714;53.056;8.690;2022-10-22T04:34:34;11.27;;;9.77;;
13291;SDS011;6714;53.056;8.690;2022-10-22T04:37:16;12.63;;;9.37;;
13291;SDS011;6714;53.056;8.690;2022-10-22T04:39:58;11.67;;;10.47;;
13291;SDS011;6714;53.056;8.690;2022-10-22T04:42:40;9.90;;;8.90;;
13291;SDS011;6714;53.056;8.690;2022-10-22T04:45:24;12.97;;;10.40;;
13291;SDS011;6714;53.056;8.690;2022-10-22T04:48:06;11.30;;;10.20;;
13291;SDS011;6714;53.056;8.690;2022-10-22T04:50:48;14.60;;;10.10;;
13291;SDS011;6714;53.056;8.690;2022-10-22T04:53:30;13.13;;;11.60;;
13291;SDS011;6714;53.056;8.690;2022-10-22T04:56:15;12.40;;;11.10;;
13291;SDS011;6714;53.056;8.690;2022-10-22T04:59:00;13.57;;;11.73;;
13291;SDS011;6714;53.056;8.690;2022-10-22T05:01:43;11.60;;;10.37;;
13291;SDS011;6714;53.056;8.690;2022-10-22T05:04:26;13.80;;;10.87;;
13291;SDS011;6714;53.056;8.690;2022-10-22T05:07:08;14.37;;;10.43;;
13291;SDS011;6714;53.056;8.690;2022-10-22T05:09:50;12.47;;;10.70;;
13291;SDS011;6714;53.056;8.690;2022-10-22T05:12:32;10.13;;;9.10;;
13291;SDS011;6714;53.056;8.690;2022-10-22T05:15:15;9.40;;;8.40;;
13291;SDS011;6714;53.056;8.690;2022-10-22T05:17:59;9.13;;;8.23;;
13291;SDS011;6714;53.056;8.690;2022-10-22T05:20:41;10.23;;;9.23;;
13291;SDS011;6714;53.056;8.690;2022-10-22T05:23:23;10.63;;;9.63;;
13291;SDS011;6714;53.056;8.690;2022-10-22T05:26:06;14.57;;;9.80;;
13291;SDS011;6714;53.056;8.690;2022-10-22T05:28:49;10.10;;;9.10;;
13291;SDS011;6714;53.056;8.690;2022-10-22T05:31:31;10.87;;;9.23;;
13291;SDS011;6714;53.056;8.690;2022-10-22T05:34:15;11.87;;;8.17;;
13291;SDS011;6714;53.056;8.690;2022-10-22T05:36:57;8.10;;;7.30;;
13291;SDS011;6714;53.056;8.690;2022-10-22T05:39:40;6.80;;;6.20;;
13291;SDS011;6714;53.056;8.690;2022-10-22T05:42:22;7.07;;;5.70;;
13291;SDS011;6714;53.056;8.690;2022-10-22T05:45:04;4.67;;;4.27;;
13291;SDS011;6714;53.056;8.690;2022-10-22T05:47:47;6.60;;;5.43;;
13291;SDS011;6714;53.056;8.690;2022-10-22T05:50:30;7.60;;;4.63;;
13291;SDS011;6714;53.056;8.690;2022-10-22T05:53:13;16.80;;;4.93;;
13291;SDS011;6714;53.056;8.690;2022-10-22T05:55:55;5.10;;;4.57;;
13291;SDS011;6714;53.056;8.690;2022-10-22T05:58:37;4.43;;;4.03;;
13291;SDS011;6714;53.056;8.690;2022-10-22T06:01:20;4.33;;;3.93;;
13291;SDS011;6714;53.056;8.690;2022-10-22T06:04:04;5.90;;;5.33;;
13291;SDS011;6714;53.056;8.690;2022-10-22T06:06:48;7.20;;;5.10;;
13291;SDS011;6714;53.056;8.690;2022-10-22T06:09:31;8.17;;;7.20;;
13291;SDS011;6714;53.056;8.690;2022-10-22T06:12:15;8.03;;;5.80;;
13291;SDS011;6714;53.056;8.690;2022-10-22T06:14:57;6.87;;;5.40;;
13291;SDS011;6714;53.056;8.690;2022-10-22T06:17:39;6.80;;;5.90;;
13291;SDS011;6714;53.056;8.690;2022-10-22T06:20:22;6.63;;;6.03;;
13291;SDS011;6714;53.056;8.690;2022-10-22T06:23:05;6.30;;;5.20;;
13291;SDS011;6714;53.056;8.690;2022-10-22T06:25:54;6.57;;;5.97;;
13291;SDS011;6714;53.056;8.690;2022-10-22T06:28:37;7.27;;;6.57;;
13291;SDS011;6714;53.056;8.690;2022-10-22T06:31:19;7.10;;;6.50;;
13291;SDS011;6714;53.056;8.690;2022-10-22T06:34:01;9.57;;;7.40;;
13291;SDS011;6714;53.056;8.690;2022-10-22T06:36:44;8.27;;;7.47;;
13291;SDS011;6714;53.056;8.690;2022-10-22T06:39:27;8.53;;;7.73;;
13291;SDS011;6714;53.056;8.690;2022-10-22T06:42:10;8.90;;;7.30;;
13291;SDS011;6714;53.056;8.690;2022-10-22T06:44:52;9.10;;;7.87;;
13291;SDS011;6714;53.056;8.690;2022-10-22T06:47:34;9.60;;;8.47;;
13291;SDS011;6714;53.056;8.690;2022-10-22T06:50:16;10.77;;;9.43;;
13291;SDS011;6714;53.056;8.690;2022-10-22T06:52:59;10.30;;;8.83;;
13291;SDS011;6714;53.056;8.690;2022-10-22T06:55:43;11.00;;;8.27;;
13291;SDS011;6714;53.056;8.690;2022-10-22T06:58:25;10.20;;;8.87;;
13291;SDS011;6714;53.056;8.690;2022-10-22T07:01:08;9.77;;;8.27;;
13291;SDS011;6714;53.056;8.690;2022-10-22T07:03:50;10.53;;;8.70;;
13291;SDS011;6714;53.056;8.690;2022-10-22T07:06:33;11.30;;;9.90;;
13291;SDS011;6714;53.056;8.690;2022-10-22T07:09:15;13.50;;;9.60;;
13291;SDS011;6714;53.056;8.690;2022-10-22T07:11:58;11.90;;;10.23;;
13291;SDS011;6714;53.056;8.690;2022-10-22T07:14:41;12.73;;;10.40;;
13291;SDS011;6714;53.056;8.690;2022-10-22T07:17:23;12.43;;;10.93;;
13291;SDS011;6714;53.056;8.690;2022-10-22T07:20:05;12.80;;;10.63;;
13291;SDS011;6714;53.056;8.690;2022-10-22T07:22:48;11.67;;;9.87;;
13291;SDS011;6714;53.056;8.690;2022-10-22T07:25:30;13.33;;;10.70;;
13291;SDS011;6714;53.056;8.690;2022-10-22T07:28:13;12.53;;;10.97;;
13291;SDS011;6714;53.056;8.690;2022-10-22T07:30:55;14.97;;;10.30;;
13291;SDS011;6714;53.056;8.690;2022-10-22T07:33:38;12.83;;;11.07;;
13291;SDS011;6714;53.056;8.690;2022-10-22T07:36:20;11.53;;;10.33;;
13291;SDS011;6714;53.056;8.690;2022-10-22T07:39:02;15.10;;;10.33;;
13291;SDS011;6714;53.056;8.690;2022-10-22T07:41:45;11.47;;;10.17;;
13291;SDS011;6714;53.056;8.690;2022-10-22T07:44:28;15.23;;;11.83;;
13291;SDS011;6714;53.056;8.690;2022-10-22T07:47:10;11.67;;;9.27;;
13291;SDS011;6714;53.056;8.690;2022-10-22T07:49:52;14.70;;;10.23;;
13291;SDS011;6714;53.056;8.690;2022-10-22T07:52:35;12.97;;;10.30;;
13291;SDS011;6714;53.056;8.690;2022-10-22T07:55:17;12.73;;;10.50;;
13291;SDS011;6714;53.056;8.690;2022-10-22T07:57:59;15.00;;;11.83;;
13291;SDS011;6714;53.056;8.690;2022-10-22T08:00:43;15.30;;;11.93;;
13291;SDS011;6714;53.056;8.690;2022-10-22T08:03:25;16.77;;;12.60;;
13291;SDS011;6714;53.056;8.690;2022-10-22T08:06:08;15.87;;;12.73;;
13291;SDS011;6714;53.056;8.690;2022-10-22T08:08:50;16.87;;;13.40;;
13291;SDS011;6714;53.056;8.690;2022-10-22T08:11:32;19.37;;;14.07;;
13291;SDS011;6714;53.056;8.690;2022-10-22T08:14:15;18.60;;;13.23;;
13291;SDS011;6714;53.056;8.690;2022-10-22T08:16:58;19.47;;;14.23;;
13291;SDS011;6714;53.056;8.690;2022-10-22T08:19:40;25.20;;;15.13;;
13291;SDS011;6714;53.056;8.690;2022-10-22T08:22:23;20.07;;;13.97;;
13291;SDS011;6714;53.056;8.690;2022-10-22T08:25:05;22.57;;;14.67;;
13291;SDS011;6714;53.056;8.690;2022-10-22T08:27:47;14.97;;;12.77;;
13291;SDS011;6714;53.056;8.690;2022-10-22T08:30:29;15.27;;;12.43;;
13291;SDS011;6714;53.056;8.690;2022-10-22T08:33:14;13.83;;;11.80;;
13291;SDS011;6714;53.056;8.690;2022-10-22T08:35:56;15.07;;;11.43;;
13291;SDS011;6714;53.056;8.690;2022-10-22T08:38:38;17.63;;;11.60;;
13291;SDS011;6714;53.056;8.690;2022-10-22T08:41:21;15.67;;;11.93;;
13291;SDS011;6714;53.056;8.690;2022-10-22T08:44:14;16.60;;;12.57;;
13291;SDS011;6714;53.056;8.690;2022-10-22T08:47:08;16.23;;;12.77;;
13291;SDS011;6714;53.056;8.690;2022-10-22T08:49:53;18.60;;;12.50;;
13291;SDS011;6714;53.056;8.690;2022-10-22T08:52:36;21.20;;;13.57;;
13291;SDS011;6714;53.056;8.690;2022-10-22T08:55:21;16.60;;;11.60;;
13291;SDS011;6714;53.056;8.690;2022-10-22T08:58:05;11.20;;;10.07;;
13291;SDS011;6714;53.056;8.690;2022-10-22T09:00:57;10.47;;;8.20;;
13291;SDS011;6714;53.056;8.690;2022-10-22T09:03:41;9.83;;;8.37;;
13291;SDS011;6714;53.056;8.690;2022-10-22T09:06:28;11.70;;;8.73;;
13291;SDS011;6714;53.056;8.690;2022-10-22T09:09:11;11.80;;;8.40;;
13291;SDS011;6714;53.056;8.690;2022-10-22T09:11:56;11.00;;;8.47;;
13291;SDS011;6714;53.056;8.690;2022-10-22T09:14:38;13.20;;;7.93;;
13291;SDS011;6714;53.056;8.690;2022-10-22T09:17:24;12.57;;;8.53;;
13291;SDS011;6714;53.056;8.690;2022-10-22T09:20:13;11.43;;;8.03;;
13291;SDS011;6714;53.056;8.690;2022-10-22T09:23:00;8.37;;;7.50;;
13291;SDS011;6714;53.056;8.690;2022-10-22T09:25:45;9.20;;;7.03;;
13291;SDS011;6714;53.056;8.690;2022-10-22T09:28:28;8.93;;;6.27;;
13291;SDS011;6714;53.056;8.690;2022-10-22T09:31:11;11.10;;;7.53;;
13291;SDS011;6714;53.056;8.690;2022-10-22T09:33:53;8.30;;;5.90;;
13291;SDS011;6714;53.056;8.690;2022-10-22T09:36:36;5.23;;;4.77;;
13291;SDS011;6714;53.056;8.690;2022-10-22T09:39:24;6.53;;;5.53;;
13291;SDS011;6714;53.056;8.690;2022-10-22T09:42:06;6.00;;;4.13;;
13291;SDS011;6714;53.056;8.690;2022-10-22T09:44:51;3.70;;;3.30;;
13291;SDS011;6714;53.056;8.690;2022-10-22T09:47:34;5.60;;;4.20;;
13291;SDS011;6714;53.056;8.690;2022-10-22T09:50:20;7.60;;;5.40;;
13291;SDS011;6714;53.056;8.690;2022-10-22T09:53:03;6.80;;;5.67;;
13291;SDS011;6714;53.056;8.690;2022-10-22T09:55:51;5.73;;;4.00;;
13291;SDS011;6714;53.056;8.690;2022-10-22T09:58:39;7.63;;;4.83;;
13291;SDS011;6714;53.056;8.690;2022-10-22T10:01:23;7.43;;;5.10;;
13291;SDS011;6714;53.056;8.690;2022-10-22T10:04:06;7.47;;;4.90;;
13291;SDS011;6714;53.056;8.690;2022-10-22T10:06:52;9.77;;;6.00;;
13291;SDS011;6714;53.056;8.690;2022-10-22T10:09:35;11.60;;;6.70;;
13291;SDS011;6714;53.056;8.690;2022-10-22T10:12:22;4.63;;;4.20;;
13291;SDS011;6714;53.056;8.690;2022-10-22T10:15:10;9.20;;;7.17;;
13291;SDS011;6714;53.056;8.690;2022-10-22T10:17:57;7.60;;;5.07;;
13291;SDS011;6714;53.056;8.690;2022-10-22T10:20:43;4.63;;;3.47;;
13291;SDS011;6714;53.056;8.690;2022-10-22T10:23:29;5.53;;;4.93;;
13291;SDS011;6714;53.056;8.690;2022-10-22T10:26:14;8.73;;;5.57;;
13291;SDS011;6714;53.056;8.690;2022-10-22T10:29:03;9.03;;;5.40;;
13291;SDS011;6714;53.056;8.690;2022-10-22T10:31:51;8.07;;;5.87;;
13291;SDS011;6714;53.056;8.690;2022-10-22T10:34:41;7.33;;;4.87;;
13291;SDS011;6714;53.056;8.690;2022-10-22T10:37:27;9.17;;;7.40;;
13291;SDS011;6714;53.056;8.690;2022-10-22T10:40:13;14.90;;;7.17;;
13291;SDS011;6714;53.056;8.690;2022-10-22T10:43:01;8.63;;;6.27;;
13291;SDS011;6714;53.056;8.690;2022-10-22T10:45:52;5.50;;;4.30;;
13291;SDS011;6714;53.056;8.690;2022-10-22T10:48:42;6.10;;;3.90;;
13291;SDS011;6714;53.056;8.690;2022-10-22T10:51:28;4.17;;;2.93;;
13291;SDS011;6714;53.056;8.690;2022-10-22T10:54:15;8.40;;;4.80;;
13291;SDS011;6714;53.056;8.690;2022-10-22T10:57:01;6.90;;;3.30;;
13291;SDS011;6714;53.056;8.690;2022-10-22T10:59:48;6.37;;;3.80;;
13291;SDS011;6714;53.056;8.690;2022-10-22T11:05:37;7.17;;;4.03;;
13291;SDS011;6714;53.056;8.690;2022-10-22T11:08:20;6.80;;;3.80;;
13291;SDS011;6714;53.056;8.690;2022-10-22T11:11:05;7.70;;;3.90;;
13291;SDS011;6714;53.056;8.690;2022-10-22T11:13:49;3.10;;;2.33;;
13291;SDS011;6714;53.056;8.690;2022-10-22T11:16:34;6.93;;;4.30;;
13291;SDS011;6714;53.056;8.690;2022-10-22T11:19:18;8.53;;;3.80;;
13291;SDS011;6714;53.056;8.690;2022-10-22T11:22:05;6.60;;;3.37;;
13291;SDS011;6714;53.056;8.690;2022-10-22T11:24:51;9.00;;;3.80;;
13291;SDS011;6714;53.056;8.690;2022-10-22T11:27:35;5.17;;;3.23;;
13291;SDS011;6714;53.056;8.690;2022-10-22T11:30:19;6.37;;;2.77;;
13291;SDS011;6714;53.056;8.690;2022-10-22T11:33:01;3.93;;;2.80;;
13291;SDS011;6714;53.056;8.690;2022-10-22T11:35:45;6.70;;;2.77;;
13291;SDS011;6714;53.056;8.690;2022-10-22T11:38:29;7.70;;;3.43;;
13291;SDS011;6714;53.056;8.690;2022-10-22T11:41:15;6.97;;;3.27;;
13291;SDS011;6714;53.056;8.690;2022-10-22T11:44:04;6.47;;;3.07;;
13291;SDS011;6714;53.056;8.690;2022-10-22T11:46:53;6.53;;;3.30;;
13291;SDS011;6714;53.056;8.690;2022-10-22T11:49:41;5.87;;;3.30;;
13291;SDS011;6714;53.056;8.690;2022-10-22T11:52:24;5.13;;;2.90;;
13291;SDS011;6714;53.056;8.690;2022-10-22T11:55:29;5.60;;;3.07;;
13291;SDS011;6714;53.056;8.690;2022-10-22T11:58:26;7.40;;;3.33;;
13291;SDS011;6714;53.056;8.690;2022-10-22T12:01:22;6.63;;;2.97;;
13291;SDS011;6714;53.056;8.690;2022-10-22T12:04:15;5.83;;;3.50;;
13291;SDS011;6714;53.056;8.690;2022-10-22T12:06:58;7.90;;;3.23;;
13291;SDS011;6714;53.056;8.690;2022-10-22T12:09:41;5.07;;;2.43;;
13291;SDS011;6714;53.056;8.690;2022-10-22T12:12:33;5.77;;;2.63;;
13291;SDS011;6714;53.056;8.690;2022-10-22T12:15:20;3.27;;;2.40;;
13291;SDS011;6714;53.056;8.690;2022-10-22T12:18:04;6.77;;;3.00;;
13291;SDS011;6714;53.056;8.690;2022-10-22T12:20:48;6.03;;;3.10;;
13291;SDS011;6714;53.056;8.690;2022-10-22T12:23:32;4.53;;;3.10;;
13291;SDS011;6714;53.056;8.690;2022-10-22T12:26:22;6.77;;;3.33;;
13291;SDS011;6714;53.056;8.690;2022-10-22T12:29:08;4.50;;;3.00;;
13291;SDS011;6714;53.056;8.690;2022-10-22T12:31:51;4.87;;;2.20;;
13291;SDS011;6714;53.056;8.690;2022-10-22T12:34:34;8.43;;;2.50;;
13291;SDS011;6714;53.056;8.690;2022-10-22T12:37:16;5.40;;;2.80;;
13291;SDS011;6714;53.056;8.690;2022-10-22T12:39:59;7.47;;;2.70;;
13291;SDS011;6714;53.056;8.690;2022-10-22T12:42:45;6.37;;;2.70;;
13291;SDS011;6714;53.056;8.690;2022-10-22T12:45:30;5.50;;;2.50;;
13291;SDS011;6714;53.056;8.690;2022-10-22T12:48:14;4.50;;;2.53;;
13291;SDS011;6714;53.056;8.690;2022-10-22T12:50:58;3.13;;;2.20;;
13291;SDS011;6714;53.056;8.690;2022-10-22T12:53:42;4.97;;;2.40;;
13291;SDS011;6714;53.056;8.690;2022-10-22T12:56:25;4.30;;;2.67;;
13291;SDS011;6714;53.056;8.690;2022-10-22T12:59:11;5.57;;;2.60;;
13291;SDS011;6714;53.056;8.690;2022-10-22T13:01:57;4.33;;;2.63;;
13291;SDS011;6714;53.056;8.690;2022-10-22T13:04:39;4.93;;;2.03;;
13291;SDS011;6714;53.056;8.690;2022-10-22T13:07:22;8.77;;;2.67;;
13291;SDS011;6714;53.056;8.690;2022-10-22T13:10:13;6.67;;;2.60;;
13291;SDS011;6714;53.056;8.690;2022-10-22T13:12:57;4.77;;;2.70;;
13291;SDS011;6714;53.056;8.690;2022-10-22T13:15:42;5.63;;;2.67;;
13291;SDS011;6714;53.056;8.690;2022-10-22T13:18:26;7.23;;;2.80;;
13291;SDS011;6714;53.056;8.690;2022-10-22T13:21:24;2.73;;;2.33;;
13291;SDS011;6714;53.056;8.690;2022-10-22T13:24:18;4.67;;;2.20;;
13291;SDS011;6714;53.056;8.690;2022-10-22T13:27:00;2.70;;;2.00;;
13291;SDS011;6714;53.056;8.690;2022-10-22T13:29:43;5.37;;;2.57;;
13291;SDS011;6714;53.056;8.690;2022-10-22T13:32:26;4.67;;;2.40;;
13291;SDS011;6714;53.056;8.690;2022-10-22T13:35:12;4.53;;;2.43;;
13291;SDS011;6714;53.056;8.690;2022-10-22T13:37:57;3.90;;;2.50;;
13291;SDS011;6714;53.056;8.690;2022-10-22T13:40:39;3.73;;;2.53;;
13291;SDS011;6714;53.056;8.690;2022-10-22T13:43:21;4.23;;;2.33;;
13291;SDS011;6714;53.056;8.690;2022-10-22T13:46:04;6.87;;;3.20;;
13291;SDS011;6714;53.056;8.690;2022-10-22T13:48:46;2.80;;;2.13;;
13291;SDS011;6714;53.056;8.690;2022-10-22T13:51:31;4.80;;;2.80;;
13291;SDS011;6714;53.056;8.690;2022-10-22T13:54:15;4.97;;;2.77;;
13291;SDS011;6714;53.056;8.690;2022-10-22T13:56:58;4.40;;;2.40;;
13291;SDS011;6714;53.056;8.690;2022-10-22T13:59:40;4.30;;;2.93;;
13291;SDS011;6714;53.056;8.690;2022-10-22T14:02:22;3.47;;;2.20;;
13291;SDS011;6714;53.056;8.690;2022-10-22T14:05:05;4.53;;;2.40;;
13291;SDS011;6714;53.056;8.690;2022-10-22T14:07:50;4.07;;;2.80;;
13291;SDS011;6714;53.056;8.690;2022-10-22T14:10:32;3.90;;;2.27;;
13291;SDS011;6714;53.056;8.690;2022-10-22T14:13:15;3.63;;;2.47;;
13291;SDS011;6714;53.056;8.690;2022-10-22T14:15:57;4.43;;;2.23;;
13291;SDS011;6714;53.056;8.690;2022-10-22T14:18:40;4.23;;;2.37;;
13291;SDS011;6714;53.056;8.690;2022-10-22T14:21:22;2.30;;;1.90;;
13291;SDS011;6714;53.056;8.690;2022-10-22T14:24:07;3.37;;;2.20;;
13291;SDS011;6714;53.056;8.690;2022-10-22T14:26:50;2.53;;;2.00;;
13291;SDS011;6714;53.056;8.690;2022-10-22T14:29:32;2.23;;;1.77;;
13291;SDS011;6714;53.056;8.690;2022-10-22T14:32:15;5.37;;;2.43;;
13291;SDS011;6714;53.056;8.690;2022-10-22T14:34:59;3.17;;;2.17;;
13291;SDS011;6714;53.056;8.690;2022-10-22T14:37:41;4.20;;;2.23;;
13291;SDS011;6714;53.056;8.690;2022-10-22T14:40:25;4.63;;;2.50;;
13291;SDS011;6714;53.056;8.690;2022-10-22T14:43:09;3.77;;;2.40;;
13291;SDS011;6714;53.056;8.690;2022-10-22T14:45:51;4.57;;;2.10;;
13291;SDS011;6714;53.056;8.690;2022-10-22T14:48:33;4.13;;;2.30;;
13291;SDS011;6714;53.056;8.690;2022-10-22T14:51:16;2.33;;;2.07;;
13291;SDS011;6714;53.056;8.690;2022-10-22T14:53:58;5.47;;;2.30;;
13291;SDS011;6714;53.056;8.690;2022-10-22T14:56:42;2.80;;;2.10;;
13291;SDS011;6714;53.056;8.690;2022-10-22T14:59:24;3.93;;;2.33;;
13291;SDS011;6714;53.056;8.690;2022-10-22T15:02:07;2.93;;;2.00;;
13291;SDS011;6714;53.056;8.690;2022-10-22T15:04:50;3.97;;;2.00;;
13291;SDS011;6714;53.056;8.690;2022-10-22T15:07:32;3.40;;;1.97;;
13291;SDS011;6714;53.056;8.690;2022-10-22T15:10:15;3.33;;;2.10;;
13291;SDS011;6714;53.056;8.690;2022-10-22T15:12:58;3.10;;;1.97;;
13291;SDS011;6714;53.056;8.690;2022-10-22T15:15:40;4.20;;;2.00;;
13291;SDS011;6714;53.056;8.690;2022-10-22T15:18:23;3.73;;;2.20;;
13291;SDS011;6714;53.056;8.690;2022-10-22T15:21:06;2.73;;;2.03;;
13291;SDS011;6714;53.056;8.690;2022-10-22T15:23:48;4.07;;;2.20;;
13291;SDS011;6714;53.056;8.690;2022-10-22T15:26:31;3.30;;;2.10;;
13291;SDS011;6714;53.056;8.690;2022-10-22T15:29:14;6.70;;;2.70;;
13291;SDS011;6714;53.056;8.690;2022-10-22T15:31:56;3.60;;;2.00;;
13291;SDS011;6714;53.056;8.690;2022-10-22T15:34:39;3.17;;;2.07;;
13291;SDS011;6714;53.056;8.690;2022-10-22T15:37:22;2.10;;;1.90;;
13291;SDS011;6714;53.056;8.690;2022-10-22T15:40:04;3.43;;;2.27;;
13291;SDS011;6714;53.056;8.690;2022-10-22T15:42:47;5.77;;;2.73;;
13291;SDS011;6714;53.056;8.690;2022-10-22T15:45:31;3.87;;;2.37;;
13291;SDS011;6714;53.056;8.690;2022-10-22T15:48:13;3.97;;;2.40;;
13291;SDS011;6714;53.056;8.690;2022-10-22T15:50:55;3.03;;;2.37;;
13291;SDS011;6714;53.056;8.690;2022-10-22T15:53:37;3.00;;;2.20;;
13291;SDS011;6714;53.056;8.690;2022-10-22T15:56:20;5.07;;;2.30;;
13291;SDS011;6714;53.056;8.690;2022-10-22T15:59:02;4.63;;;2.77;;
13291;SDS011;6714;53.056;8.690;2022-10-22T16:01:46;2.47;;;1.93;;
13291;SDS011;6714;53.056;8.690;2022-10-22T16:04:28;4.77;;;2.60;;
13291;SDS011;6714;53.056;8.690;2022-10-22T16:07:10;4.63;;;2.73;;
13291;SDS011;6714;53.056;8.690;2022-10-22T16:09:54;6.23;;;2.33;;
13291;SDS011;6714;53.056;8.690;2022-10-22T16:12:36;2.63;;;2.33;;
13291;SDS011;6714;53.056;8.690;2022-10-22T16:15:19;5.23;;;2.47;;
13291;SDS011;6714;53.056;8.690;2022-10-22T16:18:03;4.90;;;2.60;;
13291;SDS011;6714;53.056;8.690;2022-10-22T16:20:45;4.70;;;2.90;;
13291;SDS011;6714;53.056;8.690;2022-10-22T16:23:28;5.13;;;2.60;;
13291;SDS011;6714;53.056;8.690;2022-10-22T16:26:10;6.53;;;2.60;;
13291;SDS011;6714;53.056;8.690;2022-10-22T16:28:53;3.43;;;2.60;;
13291;SDS011;6714;53.056;8.690;2022-10-22T16:31:35;4.83;;;2.60;;
13291;SDS011;6714;53.056;8.690;2022-10-22T16:34:19;4.60;;;2.60;;
13291;SDS011;6714;53.056;8.690;2022-10-22T16:37:01;2.67;;;2.47;;
13291;SDS011;6714;53.056;8.690;2022-10-22T16:39:48;4.33;;;2.80;;
13291;SDS011;6714;53.056;8.690;2022-10-22T16:42:31;4.13;;;2.80;;
13291;SDS011;6714;53.056;8.690;2022-10-22T16:45:13;3.17;;;2.60;;
13291;SDS011;6714;53.056;8.690;2022-10-22T16:47:55;3.10;;;2.73;;
13291;SDS011;6714;53.056;8.690;2022-10-22T16:50:39;3.23;;;2.60;;
13291;SDS011;6714;53.056;8.690;2022-10-22T16:53:21;5.07;;;2.83;;
13291;SDS011;6714;53.056;8.690;2022-10-22T16:56:03;3.37;;;2.93;;
13291;SDS011;6714;53.056;8.690;2022-10-22T16:58:46;6.43;;;3.30;;
13291;SDS011;6714;53.056;8.690;2022-10-22T17:01:28;5.20;;;2.80;;
13291;SDS011;6714;53.056;8.690;2022-10-22T17:04:10;5.63;;;3.20;;
13291;SDS011;6714;53.056;8.690;2022-10-22T17:06:54;3.37;;;2.80;;
13291;SDS011;6714;53.056;8.690;2022-10-22T17:09:36;3.67;;;2.90;;
13291;SDS011;6714;53.056;8.690;2022-10-22T17:12:18;2.83;;;2.57;;
13291;SDS011;6714;53.056;8.690;2022-10-22T17:15:01;3.63;;;2.97;;
13291;SDS011;6714;53.056;8.690;2022-10-22T17:17:43;4.33;;;2.80;;
13291;SDS011;6714;53.056;8.690;2022-10-22T17:20:29;5.93;;;2.93;;
13291;SDS011;6714;53.056;8.690;2022-10-22T17:23:13;3.27;;;2.83;;
13291;SDS011;6714;53.056;8.690;2022-10-22T17:25:56;5.83;;;3.03;;
13291;SDS011;6714;53.056;8.690;2022-10-22T17:28:39;4.30;;;2.67;;
13291;SDS011;6714;53.056;8.690;2022-10-22T17:31:22;5.00;;;2.70;;
13291;SDS011;6714;53.056;8.690;2022-10-22T17:34:05;4.07;;;2.83;;
13291;SDS011;6714;53.056;8.690;2022-10-22T17:36:48;3.37;;;2.80;;
13291;SDS011;6714;53.056;8.690;2022-10-22T17:39:31;4.13;;;2.93;;
13291;SDS011;6714;53.056;8.690;2022-10-22T17:42:14;5.87;;;3.30;;
13291;SDS011;6714;53.056;8.690;2022-10-22T17:44:56;4.17;;;2.93;;
13291;SDS011;6714;53.056;8.690;2022-10-22T17:47:38;5.43;;;3.10;;
13291;SDS011;6714;53.056;8.690;2022-10-22T17:50:20;3.83;;;3.00;;
13291;SDS011;6714;53.056;8.690;2022-10-22T17:53:02;3.70;;;2.53;;
13291;SDS011;6714;53.056;8.690;2022-10-22T17:55:46;4.47;;;2.93;;
13291;SDS011;6714;53.056;8.690;2022-10-22T17:58:28;4.37;;;2.60;;
13291;SDS011;6714;53.056;8.690;2022-10-22T18:01:18;3.70;;;3.23;;
13291;SDS011;6714;53.056;8.690;2022-10-22T18:04:01;4.20;;;3.20;;
13291;SDS011;6714;53.056;8.690;2022-10-22T18:06:44;5.30;;;2.70;;
13291;SDS011;6714;53.056;8.690;2022-10-22T18:09:26;5.07;;;3.17;;
13291;SDS011;6714;53.056;8.690;2022-10-22T18:12:10;4.73;;;3.40;;
13291;SDS011;6714;53.056;8.690;2022-10-22T18:14:53;8.07;;;4.00;;
13291;SDS011;6714;53.056;8.690;2022-10-22T18:17:36;3.60;;;3.30;;
13291;SDS011;6714;53.056;8.690;2022-10-22T18:20:19;4.20;;;3.27;;
13291;SDS011;6714;53.056;8.690;2022-10-22T18:23:01;6.23;;;3.80;;
13291;SDS011;6714;53.056;8.690;2022-10-22T18:25:43;5.70;;;3.00;;
13291;SDS011;6714;53.056;8.690;2022-10-22T18:28:29;3.90;;;3.60;;
13291;SDS011;6714;53.056;8.690;2022-10-22T18:31:12;5.60;;;3.50;;
13291;SDS011;6714;53.056;8.690;2022-10-22T18:33:54;4.07;;;3.53;;
13291;SDS011;6714;53.056;8.690;2022-10-22T18:36:36;6.47;;;3.50;;
13291;SDS011;6714;53.056;8.690;2022-10-22T18:39:19;5.37;;;3.33;;
13291;SDS011;6714;53.056;8.690;2022-10-22T18:42:01;5.07;;;3.80;;
13291;SDS011;6714;53.056;8.690;2022-10-22T18:44:47;7.37;;;3.87;;
13291;SDS011;6714;53.056;8.690;2022-10-22T18:47:30;7.03;;;4.00;;
13291;SDS011;6714;53.056;8.690;2022-10-22T18:50:12;4.53;;;3.53;;
13291;SDS011;6714;53.056;8.690;2022-10-22T18:52:54;4.00;;;3.23;;
13291;SDS011;6714;53.056;8.690;2022-10-22T18:55:36;8.07;;;3.40;;